createdAt,value
2018-08-19T00:00:08.625Z,61.54
2018-08-19T00:01:12.953Z,61.52
2018-08-19T00:02:17.378Z,61.96
2018-08-19T00:03:21.773Z,61.24
2018-08-19T00:04:25.954Z,61.58
2018-08-19T00:05:30.386Z,61.90
2018-08-19T00:06:35.103Z,61.97
2018-08-19T00:07:39.289Z,61.76
2018-08-19T00:08:43.719Z,62.13
2018-08-19T00:09:47.939Z,61.83
2018-08-19T00:11:01.470Z,62.35
2018-08-19T00:12:05.833Z,61.72
2018-08-19T00:13:11.642Z,62.11
2018-08-19T00:14:34.622Z,62.42
2018-08-19T00:15:39.778Z,62.16
2018-08-19T00:16:44.079Z,62.37
2018-08-19T00:17:48.347Z,62.24
2018-08-19T00:18:52.592Z,61.92
2018-08-19T00:19:56.899Z,62.77
2018-08-19T00:21:01.207Z,62.28
2018-08-19T00:22:05.425Z,62.13
2018-08-19T00:23:10.404Z,62.16
2018-08-19T00:24:14.602Z,62.16
2018-08-19T00:25:32.418Z,62.33
2018-08-19T00:26:36.876Z,62.01
2018-08-19T00:27:41.112Z,62.22
2018-08-19T00:28:45.327Z,62.16
2018-08-19T00:29:50.381Z,62.24
2018-08-19T00:30:54.760Z,62.06
2018-08-19T00:31:59.147Z,62.44
2018-08-19T00:33:03.891Z,62.23
2018-08-19T00:34:08.128Z,63.01
2018-08-19T00:35:12.568Z,61.96
2018-08-19T00:36:27.089Z,62.18
2018-08-19T00:37:31.324Z,62.61
2018-08-19T00:38:35.619Z,62.69
2018-08-19T00:39:39.791Z,62.73
2018-08-19T00:40:44.343Z,62.23
2018-08-19T00:41:48.567Z,62.42
2018-08-19T00:42:52.803Z,62.57
2018-08-19T00:43:56.989Z,62.43
2018-08-19T00:45:01.370Z,62.57
2018-08-19T00:46:18.843Z,62.30
2018-08-19T00:47:23.028Z,62.71
2018-08-19T00:48:27.311Z,62.02
2018-08-19T00:49:31.815Z,62.19
2018-08-19T00:50:36.068Z,61.92
2018-08-19T00:51:44.459Z,62.22
2018-08-19T00:52:48.675Z,62.00
2018-08-19T00:53:52.950Z,62.03
2018-08-19T00:54:57.167Z,62.66
2018-08-19T00:56:01.926Z,62.17
2018-08-19T00:57:07.924Z,62.27
2018-08-19T00:58:19.549Z,62.34
2018-08-19T00:59:24.518Z,61.83
2018-08-19T01:00:29.640Z,62.68
2018-08-19T01:01:36.087Z,62.67
2018-08-19T01:02:40.511Z,61.95
2018-08-19T01:03:52.585Z,62.02
2018-08-19T01:04:57.079Z,62.69
2018-08-19T01:06:01.408Z,62.87
2018-08-19T01:07:06.071Z,62.28
2018-08-19T01:08:11.191Z,62.78
2018-08-19T01:09:15.367Z,62.55
2018-08-19T01:10:19.643Z,62.74
2018-08-19T01:11:34.081Z,62.06
2018-08-19T01:12:38.328Z,63.16
2018-08-19T01:13:42.721Z,62.59
2018-08-19T01:14:47.029Z,63.11
2018-08-19T01:15:51.439Z,63.14
2018-08-19T01:16:55.666Z,63.26
2018-08-19T01:17:59.909Z,62.65
2018-08-19T01:19:04.135Z,63.10
2018-08-19T01:20:09.285Z,62.54
2018-08-19T01:21:13.590Z,62.84
2018-08-19T01:22:17.784Z,62.97
2018-08-19T01:23:22.003Z,62.73
2018-08-19T01:24:26.207Z,62.77
2018-08-19T01:25:30.515Z,63.47
2018-08-19T01:26:36.581Z,63.43
2018-08-19T01:27:41.043Z,63.00
2018-08-19T01:28:45.227Z,63.32
2018-08-19T01:29:49.588Z,63.84
2018-08-19T01:30:53.763Z,63.90
2018-08-19T01:32:01.280Z,63.60
2018-08-19T01:33:05.602Z,63.36
2018-08-19T01:34:14.920Z,63.29
2018-08-19T01:35:21.991Z,63.94
2018-08-19T01:36:28.611Z,63.53
2018-08-19T01:37:32.858Z,63.78
2018-08-19T01:38:37.014Z,63.70
2018-08-19T01:39:41.195Z,64.19
2018-08-19T01:40:45.350Z,63.86
2018-08-19T01:41:49.496Z,64.38
2018-08-19T01:42:53.703Z,63.90
2018-08-19T01:44:07.354Z,63.68
2018-08-19T01:45:11.775Z,64.06
2018-08-19T01:46:16.147Z,63.94
2018-08-19T01:47:20.740Z,64.07
2018-08-19T01:48:25.138Z,63.92
2018-08-19T01:49:29.272Z,64.26
2018-08-19T01:50:33.550Z,64.58
2018-08-19T01:51:38.894Z,64.23
2018-08-19T01:52:44.056Z,64.03
2018-08-19T01:53:48.360Z,63.88
2018-08-19T01:54:52.547Z,64.63
2018-08-19T01:55:56.702Z,64.47
2018-08-19T01:57:01.915Z,64.67
2018-08-19T01:58:06.392Z,64.20
2018-08-19T01:59:10.877Z,64.53
2018-08-19T02:00:15.683Z,64.64
2018-08-19T02:01:19.886Z,64.39
2018-08-19T02:02:24.274Z,64.43
2018-08-19T02:03:28.552Z,63.90
2018-08-19T02:04:35.003Z,64.65
2018-08-19T02:05:39.385Z,64.43
2018-08-19T02:06:44.624Z,64.23
2018-08-19T02:07:51.258Z,64.02
2018-08-19T02:08:55.583Z,64.42
2018-08-19T02:10:01.961Z,64.37
2018-08-19T02:11:17.658Z,64.61
2018-08-19T02:12:21.887Z,64.05
2018-08-19T02:13:26.062Z,64.55
2018-08-19T02:14:30.311Z,64.53
2018-08-19T02:15:34.536Z,64.62
2018-08-19T02:16:38.886Z,64.52
2018-08-19T02:17:47.207Z,64.03
2018-08-19T02:18:51.375Z,64.25
2018-08-19T02:19:55.748Z,64.25
2018-08-19T02:20:59.999Z,64.19
2018-08-19T02:22:04.378Z,64.35
2018-08-19T02:23:12.381Z,64.08
2018-08-19T02:24:17.254Z,64.61
2018-08-19T02:25:21.450Z,64.31
2018-08-19T02:26:29.517Z,64.49
2018-08-19T02:27:34.035Z,64.86
2018-08-19T02:28:38.208Z,64.99
2018-08-19T02:29:42.379Z,64.23
2018-08-19T02:30:52.733Z,64.31
2018-08-19T02:31:59.262Z,64.76
2018-08-19T02:33:04.248Z,64.50
2018-08-19T02:34:08.461Z,65.14
2018-08-19T02:35:14.095Z,64.66
2018-08-19T02:36:18.358Z,64.97
2018-08-19T02:37:22.747Z,64.91
2018-08-19T02:38:26.968Z,65.07
2018-08-19T02:39:31.464Z,64.76
2018-08-19T02:40:35.669Z,64.44
2018-08-19T02:41:41.927Z,64.44
2018-08-19T02:42:46.391Z,64.41
2018-08-19T02:43:58.144Z,64.96
2018-08-19T02:45:04.535Z,65.21
2018-08-19T02:46:08.799Z,64.95
2018-08-19T02:47:13.083Z,64.43
2018-08-19T02:48:17.349Z,64.79
2018-08-19T02:49:21.497Z,64.69
2018-08-19T02:50:25.670Z,64.89
2018-08-19T02:51:29.943Z,65.21
2018-08-19T02:52:36.779Z,65.41
2018-08-19T02:53:41.744Z,65.21
2018-08-19T02:54:45.944Z,64.71
2018-08-19T02:55:50.141Z,65.26
2018-08-19T02:56:54.580Z,65.44
2018-08-19T02:58:04.031Z,65.03
2018-08-19T02:59:08.270Z,65.51
2018-08-19T03:00:12.992Z,65.84
2018-08-19T03:01:17.983Z,65.07
2018-08-19T03:02:30.210Z,64.96
2018-08-19T03:03:34.405Z,64.97
2018-08-19T03:04:38.652Z,65.67
2018-08-19T03:05:47.076Z,65.70
2018-08-19T03:06:51.283Z,65.35
2018-08-19T03:07:56.019Z,65.73
2018-08-19T03:09:00.565Z,65.56
2018-08-19T03:10:12.902Z,65.09
2018-08-19T03:11:19.179Z,65.07
2018-08-19T03:12:23.588Z,65.84
2018-08-19T03:13:27.803Z,65.03
2018-08-19T03:14:32.000Z,65.42
2018-08-19T03:15:36.199Z,65.61
2018-08-19T03:16:40.415Z,65.72
2018-08-19T03:17:47.319Z,65.37
2018-08-19T03:18:52.871Z,65.71
2018-08-19T03:19:58.082Z,65.65
2018-08-19T03:21:02.622Z,65.33
2018-08-19T03:22:06.766Z,65.53
2018-08-19T03:23:11.959Z,65.67
2018-08-19T03:24:16.135Z,65.32
2018-08-19T03:25:20.466Z,65.69
2018-08-19T03:26:24.715Z,65.83
2018-08-19T03:27:29.239Z,65.76
2018-08-19T03:28:33.416Z,65.57
2018-08-19T03:29:43.077Z,65.79
2018-08-19T03:30:50.763Z,65.73
2018-08-19T03:32:01.627Z,65.94
2018-08-19T03:33:05.859Z,65.77
2018-08-19T03:34:10.044Z,65.93
2018-08-19T03:35:16.254Z,66.10
2018-08-19T03:36:20.452Z,66.01
2018-08-19T03:37:24.660Z,66.30
2018-08-19T03:38:29.395Z,65.91
2018-08-19T03:39:33.594Z,66.18
2018-08-19T03:40:37.768Z,66.49
2018-08-19T03:41:42.082Z,65.92
2018-08-19T03:42:46.304Z,66.30
2018-08-19T03:43:54.632Z,66.33
2018-08-19T03:45:04.504Z,66.16
2018-08-19T03:46:12.854Z,66.45
2018-08-19T03:47:20.963Z,66.08
2018-08-19T03:48:25.183Z,65.77
2018-08-19T03:49:29.391Z,66.08
2018-08-19T03:50:37.776Z,66.29
2018-08-19T03:51:42.123Z,66.43
2018-08-19T03:52:46.371Z,66.13
2018-08-19T03:53:50.657Z,66.20
2018-08-19T03:54:54.860Z,66.67
2018-08-19T03:55:59.023Z,66.19
2018-08-19T03:57:03.342Z,66.21
2018-08-19T03:58:08.758Z,66.62
2018-08-19T03:59:13.162Z,65.87
2018-08-19T04:00:18.768Z,66.18
2018-08-19T04:01:33.924Z,66.55
2018-08-19T04:02:38.121Z,66.01
2018-08-19T04:03:42.274Z,65.99
2018-08-19T04:04:46.736Z,65.66
2018-08-19T04:05:56.403Z,65.93
2018-08-19T04:07:00.620Z,66.43
2018-08-19T04:08:05.051Z,66.06
2018-08-19T04:09:09.266Z,65.96
2018-08-19T04:10:13.789Z,66.24
2018-08-19T04:11:17.962Z,66.31
2018-08-19T04:12:22.175Z,65.82
2018-08-19T04:13:34.647Z,65.61
2018-08-19T04:14:39.215Z,65.99
2018-08-19T04:15:43.456Z,65.94
2018-08-19T04:16:47.624Z,66.42
2018-08-19T04:17:51.840Z,66.47
2018-08-19T04:19:10.500Z,66.04
2018-08-19T04:20:14.655Z,66.08
2018-08-19T04:21:18.963Z,66.31
2018-08-19T04:22:23.142Z,66.45
2018-08-19T04:23:27.737Z,66.22
2018-08-19T04:24:32.614Z,66.67
2018-08-19T04:25:36.800Z,66.05
2018-08-19T04:26:40.997Z,66.55
2018-08-19T04:27:45.279Z,66.89
2018-08-19T04:28:49.478Z,66.60
2018-08-19T04:29:53.662Z,66.71
2018-08-19T04:31:00.073Z,66.22
2018-08-19T04:32:05.275Z,66.92
2018-08-19T04:33:09.599Z,66.62
2018-08-19T04:34:13.838Z,66.39
2018-08-19T04:35:18.060Z,66.28
2018-08-19T04:36:23.363Z,66.28
2018-08-19T04:37:27.911Z,67.04
2018-08-19T04:38:32.054Z,66.39
2018-08-19T04:39:36.401Z,66.88
2018-08-19T04:40:40.629Z,66.87
2018-08-19T04:41:44.834Z,66.37
2018-08-19T04:42:49.240Z,66.56
2018-08-19T04:43:54.886Z,66.61
2018-08-19T04:44:59.091Z,67.20
2018-08-19T04:46:03.346Z,66.43
2018-08-19T04:47:21.535Z,66.71
2018-08-19T04:48:27.203Z,66.96
2018-08-19T04:49:33.772Z,67.05
2018-08-19T04:50:38.036Z,67.26
2018-08-19T04:51:42.307Z,66.67
2018-08-19T04:52:46.459Z,66.77
2018-08-19T04:53:50.960Z,67.39
2018-08-19T04:54:56.289Z,66.92
2018-08-19T04:56:00.578Z,66.66
2018-08-19T04:57:04.955Z,67.22
2018-08-19T04:58:09.128Z,67.17
2018-08-19T04:59:13.562Z,66.94
2018-08-19T05:00:17.745Z,67.63
2018-08-19T05:01:21.901Z,66.71
2018-08-19T05:02:26.277Z,66.89
2018-08-19T05:03:30.433Z,67.34
2018-08-19T05:04:34.623Z,67.09
2018-08-19T05:05:39.462Z,67.50
2018-08-19T05:06:43.792Z,67.12
2018-08-19T05:07:47.958Z,66.94
2018-08-19T05:08:52.343Z,67.46
2018-08-19T05:09:56.541Z,67.25
2018-08-19T05:11:00.925Z,67.11
2018-08-19T05:12:05.139Z,67.43
2018-08-19T05:13:09.947Z,66.75
2018-08-19T05:14:14.282Z,66.71
2018-08-19T05:15:18.617Z,67.46
2018-08-19T05:16:22.906Z,67.08
2018-08-19T05:17:27.157Z,66.42
2018-08-19T05:18:31.315Z,67.21
2018-08-19T05:19:35.475Z,66.54
2018-08-19T05:20:39.723Z,67.14
2018-08-19T05:21:43.886Z,66.62
2018-08-19T05:22:48.115Z,66.89
2018-08-19T05:23:52.280Z,67.08
2018-08-19T05:24:56.627Z,67.46
2018-08-19T05:26:00.901Z,67.16
2018-08-19T05:27:06.815Z,66.84
2018-08-19T05:28:10.989Z,66.79
2018-08-19T05:29:16.261Z,66.69
2018-08-19T05:30:20.548Z,66.86
2018-08-19T05:31:24.757Z,66.75
2018-08-19T05:32:29.104Z,66.69
2018-08-19T05:33:33.291Z,67.35
2018-08-19T05:34:37.546Z,66.62
2018-08-19T05:35:41.740Z,67.02
2018-08-19T05:36:48.993Z,67.29
2018-08-19T05:37:53.353Z,66.54
2018-08-19T05:38:57.635Z,67.08
2018-08-19T05:40:01.784Z,66.68
2018-08-19T05:41:07.325Z,66.65
2018-08-19T05:42:12.682Z,66.25
2018-08-19T05:43:16.838Z,66.41
2018-08-19T05:44:21.109Z,67.08
2018-08-19T05:45:25.347Z,66.59
2018-08-19T05:46:29.739Z,66.30
2018-08-19T05:47:33.971Z,66.24
2018-08-19T05:48:38.130Z,66.33
2018-08-19T05:49:43.472Z,66.08
2018-08-19T05:50:47.726Z,65.79
2018-08-19T05:51:51.911Z,66.12
2018-08-19T05:52:56.138Z,66.02
2018-08-19T05:54:00.369Z,65.72
2018-08-19T05:55:04.524Z,65.77
2018-08-19T05:56:08.891Z,65.85
2018-08-19T05:57:13.362Z,65.90
2018-08-19T05:58:17.891Z,65.01
2018-08-19T05:59:22.325Z,65.45
2018-08-19T06:00:27.843Z,64.76
2018-08-19T06:01:32.038Z,64.59
2018-08-19T06:02:41.440Z,65.07
2018-08-19T06:03:45.692Z,65.21
2018-08-19T06:04:50.246Z,65.20
2018-08-19T06:05:54.490Z,64.44
2018-08-19T06:07:02.841Z,64.46
2018-08-19T06:08:11.552Z,64.37
2018-08-19T06:09:16.115Z,63.87
2018-08-19T06:10:20.513Z,64.48
2018-08-19T06:11:24.857Z,63.95
2018-08-19T06:12:29.039Z,64.00
2018-08-19T06:13:33.267Z,64.08
2018-08-19T06:14:37.440Z,63.37
2018-08-19T06:15:41.935Z,63.36
2018-08-19T06:16:46.122Z,63.57
2018-08-19T06:17:50.357Z,63.11
2018-08-19T06:18:54.755Z,62.50
2018-08-19T06:19:59.483Z,62.86
2018-08-19T06:21:03.695Z,62.37
2018-08-19T06:22:08.044Z,62.23
2018-08-19T06:23:12.192Z,62.06
2018-08-19T06:25:19.476Z,62.42
2018-08-19T06:26:28.062Z,62.22
2018-08-19T06:27:36.720Z,61.95
2018-08-19T06:28:41.150Z,61.97
2018-08-19T06:29:48.145Z,62.34
2018-08-19T06:30:52.461Z,61.80
2018-08-19T06:31:56.635Z,61.96
2018-08-19T06:33:00.838Z,61.41
2018-08-19T06:34:05.041Z,61.36
2018-08-19T06:35:09.684Z,61.99
2018-08-19T06:36:13.894Z,61.48
2018-08-19T06:37:18.796Z,61.09
2018-08-19T06:38:23.001Z,60.82
2018-08-19T06:39:27.237Z,61.33
2018-08-19T06:40:31.607Z,60.87
2018-08-19T06:41:35.782Z,60.97
2018-08-19T06:42:40.028Z,61.31
2018-08-19T06:43:44.269Z,60.40
2018-08-19T06:44:48.512Z,60.58
2018-08-19T06:45:52.698Z,60.89
2018-08-19T06:46:57.246Z,60.45
2018-08-19T06:48:01.647Z,59.99
2018-08-19T06:49:11.059Z,59.86
2018-08-19T06:50:22.881Z,59.85
2018-08-19T06:51:27.090Z,59.77
2018-08-19T06:52:31.356Z,59.79
2018-08-19T06:53:35.584Z,59.54
2018-08-19T06:54:40.018Z,59.43
2018-08-19T06:55:44.238Z,59.54
2018-08-19T06:56:48.622Z,58.83
2018-08-19T06:57:53.432Z,59.06
2018-08-19T06:58:57.855Z,58.85
2018-08-19T07:00:02.204Z,58.31
2018-08-19T07:01:06.390Z,58.28
2018-08-19T07:02:10.658Z,57.57
2018-08-19T07:03:14.871Z,57.34
2018-08-19T07:04:19.027Z,57.32
2018-08-19T07:05:23.227Z,57.69
2018-08-19T07:06:27.479Z,57.25
2018-08-19T07:07:31.787Z,57.28
2018-08-19T07:08:36.007Z,56.92
2018-08-19T07:09:40.955Z,57.35
2018-08-19T07:10:45.131Z,56.35
2018-08-19T07:11:59.950Z,56.69
2018-08-19T07:13:09.612Z,55.57
2018-08-19T07:14:13.902Z,55.41
2018-08-19T07:15:18.078Z,55.32
2018-08-19T07:16:22.291Z,55.32
2018-08-19T07:17:26.558Z,55.17
2018-08-19T07:18:31.621Z,55.34
2018-08-19T07:19:37.196Z,54.64
2018-08-19T07:20:42.286Z,54.49
2018-08-19T07:21:48.966Z,55.27
2018-08-19T07:22:53.127Z,55.15
2018-08-19T07:23:57.333Z,54.87
2018-08-19T07:25:01.728Z,54.37
2018-08-19T07:26:06.339Z,55.08
2018-08-19T07:27:10.996Z,54.88
2018-08-19T07:28:16.796Z,54.91
2018-08-19T07:29:21.080Z,54.00
2018-08-19T07:30:25.326Z,53.89
2018-08-19T07:31:29.511Z,54.58
2018-08-19T07:32:33.723Z,53.83
2018-08-19T07:33:37.939Z,53.88
2018-08-19T07:34:42.190Z,54.39
2018-08-19T07:35:46.419Z,53.79
2018-08-19T07:36:50.712Z,54.14
2018-08-19T07:37:54.826Z,54.54
2018-08-19T07:38:58.989Z,53.82
2018-08-19T07:40:03.236Z,53.63
2018-08-19T07:41:07.446Z,54.32
2018-08-19T07:42:11.825Z,54.31
2018-08-19T07:43:16.155Z,54.35
2018-08-19T07:44:20.434Z,53.49
2018-08-19T07:45:24.980Z,54.10
2018-08-19T07:46:29.591Z,53.56
2018-08-19T07:47:33.774Z,53.94
2018-08-19T07:48:38.002Z,53.09
2018-08-19T07:49:42.169Z,52.94
2018-08-19T07:50:46.364Z,53.18
2018-08-19T07:51:50.628Z,52.88
2018-08-19T07:52:55.209Z,53.31
2018-08-19T07:53:59.436Z,52.61
2018-08-19T07:55:03.923Z,52.99
2018-08-19T07:56:08.158Z,52.64
2018-08-19T07:57:21.461Z,52.41
2018-08-19T07:58:36.914Z,52.99
2018-08-19T07:59:41.760Z,52.63
2018-08-19T08:00:45.943Z,52.78
2018-08-19T08:01:50.139Z,51.97
2018-08-19T08:02:54.480Z,52.52
2018-08-19T08:03:58.675Z,52.26
2018-08-19T08:05:02.961Z,51.77
2018-08-19T08:06:07.287Z,52.26
2018-08-19T08:07:12.408Z,51.89
2018-08-19T08:08:16.732Z,52.32
2018-08-19T08:09:20.987Z,51.98
2018-08-19T08:10:25.631Z,51.57
2018-08-19T08:11:30.372Z,51.86
2018-08-19T08:12:34.578Z,52.42
2018-08-19T08:13:38.777Z,52.33
2018-08-19T08:14:48.377Z,52.00
2018-08-19T08:15:54.835Z,52.27
2018-08-19T08:16:59.111Z,52.39
2018-08-19T08:18:03.320Z,52.00
2018-08-19T08:19:07.737Z,52.15
2018-08-19T08:20:12.106Z,52.48
2018-08-19T08:21:16.384Z,52.24
2018-08-19T08:22:21.063Z,52.47
2018-08-19T08:23:27.085Z,52.42
2018-08-19T08:24:31.694Z,52.01
2018-08-19T08:25:36.138Z,52.66
2018-08-19T08:26:47.464Z,52.54
2018-08-19T08:27:51.861Z,52.05
2018-08-19T08:29:01.273Z,51.94
2018-08-19T08:30:09.304Z,51.88
2018-08-19T08:31:13.713Z,52.09
2018-08-19T08:32:17.951Z,52.76
2018-08-19T08:33:22.191Z,52.90
2018-08-19T08:34:28.082Z,52.19
2018-08-19T08:35:32.777Z,52.96
2018-08-19T08:36:37.116Z,52.33
2018-08-19T08:37:42.151Z,52.89
2018-08-19T08:38:46.359Z,52.70
2018-08-19T08:39:55.735Z,52.63
2018-08-19T08:41:00.060Z,52.14
2018-08-19T08:42:04.572Z,52.02
2018-08-19T08:43:08.903Z,51.31
2018-08-19T08:44:13.311Z,51.60
2018-08-19T08:45:21.715Z,51.46
2018-08-19T08:46:25.946Z,50.64
2018-08-19T08:47:31.963Z,50.84
2018-08-19T08:49:44.760Z,50.38
2018-08-19T08:50:49.111Z,51.19
2018-08-19T08:51:53.431Z,50.69
2018-08-19T08:52:57.667Z,50.42
2018-08-19T08:54:01.891Z,50.61
2018-08-19T08:55:08.550Z,49.94
2018-08-19T08:56:13.403Z,50.53
2018-08-19T08:57:18.543Z,49.80
2018-08-19T08:58:23.016Z,49.74
2018-08-19T08:59:27.231Z,49.26
2018-08-19T09:00:31.475Z,49.39
2018-08-19T09:01:35.680Z,48.35
2018-08-19T09:02:39.929Z,48.31
2018-08-19T09:03:44.224Z,48.10
2018-08-19T09:04:49.034Z,48.86
2018-08-19T09:05:53.247Z,48.12
2018-08-19T09:06:57.582Z,48.74
2018-08-19T09:08:01.881Z,48.12
2018-08-19T09:09:08.309Z,48.38
2018-08-19T09:10:13.651Z,48.15
2018-08-19T09:11:18.539Z,48.31
2018-08-19T09:12:33.807Z,47.99
2018-08-19T09:13:38.003Z,47.58
2018-08-19T09:14:42.792Z,47.63
2018-08-19T09:15:47.427Z,48.34
2018-08-19T09:16:51.641Z,47.66
2018-08-19T09:17:55.896Z,48.01
2018-08-19T09:19:00.086Z,48.53
2018-08-19T09:20:05.275Z,48.47
2018-08-19T09:21:09.604Z,48.53
2018-08-19T09:22:13.779Z,48.22
2018-08-19T09:23:18.253Z,48.15
2018-08-19T09:24:22.405Z,48.15
2018-08-19T09:25:26.532Z,47.64
2018-08-19T09:26:30.687Z,47.83
2018-08-19T09:27:35.346Z,48.23
2018-08-19T09:28:39.522Z,47.98
2018-08-19T09:29:43.832Z,47.92
2018-08-19T09:30:48.143Z,47.20
2018-08-19T09:31:52.324Z,47.67
2018-08-19T09:32:59.877Z,47.46
2018-08-19T09:34:04.067Z,47.74
2018-08-19T09:35:08.270Z,47.00
2018-08-19T09:36:12.513Z,47.44
2018-08-19T09:37:16.821Z,47.34
2018-08-19T09:38:22.006Z,47.19
2018-08-19T09:39:26.255Z,46.91
2018-08-19T09:40:30.857Z,47.28
2018-08-19T09:41:35.076Z,47.23
2018-08-19T09:42:39.232Z,47.40
2018-08-19T09:43:43.485Z,46.83
2018-08-19T09:44:47.647Z,46.55
2018-08-19T09:45:51.836Z,46.41
2018-08-19T09:46:56.199Z,46.60
2018-08-19T09:48:00.787Z,46.25
2018-08-19T09:49:04.747Z,46.22
2018-08-19T09:50:09.167Z,46.40
2018-08-19T09:51:15.395Z,46.59
2018-08-19T09:52:19.604Z,46.89
2018-08-19T09:53:23.888Z,46.20
2018-08-19T09:54:35.407Z,46.94
2018-08-19T09:55:39.603Z,46.24
2018-08-19T09:56:43.984Z,46.56
2018-08-19T09:57:53.458Z,46.30
2018-08-19T09:59:03.674Z,46.97
2018-08-19T10:00:07.837Z,46.89
2018-08-19T10:01:14.934Z,46.03
2018-08-19T10:02:19.282Z,46.45
2018-08-19T10:03:23.549Z,46.40
2018-08-19T10:04:27.970Z,46.79
2018-08-19T10:05:34.283Z,46.10
2018-08-19T10:06:38.527Z,46.61
2018-08-19T10:07:42.773Z,46.70
2018-08-19T10:08:46.930Z,46.26
2018-08-19T10:09:51.238Z,46.67
2018-08-19T10:10:55.387Z,45.92
2018-08-19T10:11:59.920Z,45.74
2018-08-19T10:13:04.506Z,46.31
2018-08-19T10:14:08.829Z,45.56
2018-08-19T10:15:13.185Z,45.61
2018-08-19T10:16:17.599Z,45.92
2018-08-19T10:17:21.777Z,45.44
2018-08-19T10:18:26.224Z,44.85
2018-08-19T10:19:30.403Z,45.43
2018-08-19T10:20:34.594Z,44.80
2018-08-19T10:21:38.788Z,45.35
2018-08-19T10:22:43.705Z,45.40
2018-08-19T10:23:47.943Z,45.07
2018-08-19T10:24:52.259Z,45.14
2018-08-19T10:25:56.464Z,45.85
2018-08-19T10:27:00.978Z,45.36
2018-08-19T10:28:05.181Z,45.74
2018-08-19T10:29:09.593Z,45.71
2018-08-19T10:30:14.020Z,45.83
2018-08-19T10:31:18.685Z,45.75
2018-08-19T10:32:22.852Z,45.91
2018-08-19T10:33:27.237Z,46.37
2018-08-19T10:34:34.501Z,45.74
2018-08-19T10:35:38.747Z,45.88
2018-08-19T10:36:43.348Z,46.33
2018-08-19T10:37:47.899Z,46.34
2018-08-19T10:38:52.254Z,46.57
2018-08-19T10:39:56.447Z,46.69
2018-08-19T10:41:05.478Z,46.33
2018-08-19T10:42:21.483Z,46.01
2018-08-19T10:43:27.988Z,46.67
2018-08-19T10:44:32.136Z,46.66
2018-08-19T10:45:39.172Z,46.62
2018-08-19T10:46:43.909Z,46.76
2018-08-19T10:47:48.082Z,45.91
2018-08-19T10:48:52.308Z,46.19
2018-08-19T10:50:10.718Z,45.73
2018-08-19T10:51:14.915Z,45.70
2018-08-19T10:52:23.240Z,45.81
2018-08-19T10:53:28.482Z,46.08
2018-08-19T10:54:32.716Z,46.22
2018-08-19T10:55:36.900Z,45.98
2018-08-19T10:56:41.116Z,45.69
2018-08-19T10:57:45.325Z,46.41
2018-08-19T10:58:53.512Z,45.71
2018-08-19T10:59:58.907Z,45.94
2018-08-19T11:01:03.096Z,46.46
2018-08-19T11:02:07.351Z,46.38
2018-08-19T11:03:16.614Z,46.26
2018-08-19T11:04:20.888Z,46.26
2018-08-19T11:05:25.093Z,46.76
2018-08-19T11:06:29.315Z,46.07
2018-08-19T11:07:33.607Z,46.80
2018-08-19T11:08:42.011Z,46.17
2018-08-19T11:09:57.786Z,46.14
2018-08-19T11:11:01.948Z,46.16
2018-08-19T11:12:06.487Z,45.98
2018-08-19T11:13:10.722Z,46.34
2018-08-19T11:14:14.896Z,46.80
2018-08-19T11:15:30.719Z,46.07
2018-08-19T11:16:34.906Z,46.22
2018-08-19T11:17:39.116Z,45.82
2018-08-19T11:18:46.789Z,45.84
2018-08-19T11:19:51.076Z,45.80
2018-08-19T11:20:58.070Z,45.76
2018-08-19T11:22:02.227Z,46.25
2018-08-19T11:23:10.599Z,45.68
2018-08-19T11:24:19.701Z,45.90
2018-08-19T11:25:27.081Z,46.33
2018-08-19T11:26:31.314Z,46.59
2018-08-19T11:27:35.444Z,46.62
2018-08-19T11:28:52.747Z,46.68
2018-08-19T11:29:56.956Z,46.33
2018-08-19T11:31:01.141Z,46.36
2018-08-19T11:32:05.615Z,46.06
2018-08-19T11:33:09.837Z,46.60
2018-08-19T11:34:14.020Z,46.52
2018-08-19T11:35:18.265Z,46.03
2018-08-19T11:36:28.211Z,46.51
2018-08-19T11:37:32.384Z,46.22
2018-08-19T11:38:36.950Z,46.22
2018-08-19T11:39:44.638Z,46.14
2018-08-19T11:40:48.985Z,46.18
2018-08-19T11:41:53.131Z,46.35
2018-08-19T11:42:57.371Z,46.45
2018-08-19T11:44:08.881Z,46.05
2018-08-19T11:45:13.085Z,45.72
2018-08-19T11:46:17.313Z,45.80
2018-08-19T11:47:21.572Z,45.84
2018-08-19T11:48:25.893Z,45.44
2018-08-19T11:49:30.047Z,45.80
2018-08-19T11:50:34.260Z,45.00
2018-08-19T11:51:47.531Z,45.77
2018-08-19T11:52:55.996Z,45.04
2018-08-19T11:54:00.249Z,45.21
2018-08-19T11:55:04.547Z,45.99
2018-08-19T11:56:08.788Z,45.95
2018-08-19T11:57:13.463Z,45.67
2018-08-19T11:58:33.632Z,45.59
2018-08-19T11:59:46.247Z,45.89
2018-08-19T12:00:55.752Z,45.53
2018-08-19T12:02:00.243Z,45.50
2018-08-19T12:03:04.408Z,45.96
2018-08-19T12:04:10.743Z,46.17
2018-08-19T12:05:14.948Z,45.45
2018-08-19T12:06:19.419Z,46.02
2018-08-19T12:07:23.772Z,45.57
2018-08-19T12:08:27.974Z,45.33
2018-08-19T12:09:32.172Z,45.39
2018-08-19T12:10:36.298Z,45.24
2018-08-19T12:11:41.573Z,45.52
2018-08-19T12:12:47.931Z,45.90
2018-08-19T12:13:53.300Z,45.12
2018-08-19T12:14:57.609Z,45.11
2018-08-19T12:16:01.952Z,45.43
2018-08-19T12:17:08.857Z,45.56
2018-08-19T12:18:13.091Z,44.66
2018-08-19T12:19:22.764Z,44.89
2018-08-19T12:20:34.079Z,45.54
2018-08-19T12:21:44.175Z,45.28
2018-08-19T12:22:48.347Z,45.61
2018-08-19T12:24:06.683Z,45.72
2018-08-19T12:25:10.874Z,45.34
2018-08-19T12:26:15.090Z,44.94
2018-08-19T12:27:22.233Z,44.95
2018-08-19T12:28:26.366Z,45.10
2018-08-19T12:29:32.847Z,45.35
2018-08-19T12:30:37.054Z,44.85
2018-08-19T12:31:41.544Z,44.67
2018-08-19T12:32:45.698Z,45.50
2018-08-19T12:33:49.892Z,45.07
2018-08-19T12:34:58.480Z,45.41
2018-08-19T12:36:02.663Z,45.44
2018-08-19T12:37:07.967Z,45.40
2018-08-19T12:38:12.112Z,45.15
2018-08-19T12:39:16.450Z,44.59
2018-08-19T12:40:20.755Z,44.79
2018-08-19T12:41:24.932Z,45.05
2018-08-19T12:42:29.842Z,45.38
2018-08-19T12:43:34.867Z,45.46
2018-08-19T12:44:39.434Z,45.19
2018-08-19T12:45:43.935Z,45.26
2018-08-19T12:47:02.943Z,45.37
2018-08-19T12:48:07.091Z,45.07
2018-08-19T12:49:11.231Z,45.28
2018-08-19T12:50:15.986Z,44.70
2018-08-19T12:51:20.149Z,45.21
2018-08-19T12:52:25.915Z,45.43
2018-08-19T12:53:30.138Z,44.75
2018-08-19T12:54:34.427Z,44.99
2018-08-19T12:55:38.843Z,45.03
2018-08-19T12:56:43.047Z,44.89
2018-08-19T12:57:51.464Z,44.82
2018-08-19T12:58:55.653Z,44.49
2018-08-19T13:00:06.992Z,44.65
2018-08-19T13:01:11.155Z,44.75
2018-08-19T13:02:15.395Z,45.22
2018-08-19T13:03:19.575Z,45.05
2018-08-19T13:04:24.063Z,45.02
2018-08-19T13:05:28.242Z,44.85
2018-08-19T13:06:32.387Z,45.12
2018-08-19T13:07:36.581Z,45.17
2018-08-19T13:08:40.758Z,45.00
2018-08-19T13:09:50.003Z,44.58
2018-08-19T13:10:54.316Z,44.40
2018-08-19T13:12:05.695Z,44.75
2018-08-19T13:13:10.288Z,45.01
2018-08-19T13:14:14.667Z,45.12
2018-08-19T13:15:18.867Z,44.22
2018-08-19T13:16:23.075Z,44.83
2018-08-19T13:17:27.246Z,45.20
2018-08-19T13:18:36.739Z,45.11
2018-08-19T13:19:41.007Z,44.33
2018-08-19T13:20:45.170Z,44.70
2018-08-19T13:21:49.367Z,45.06
2018-08-19T13:22:59.138Z,44.44
2018-08-19T13:24:03.483Z,44.47
2018-08-19T13:25:07.678Z,44.37
2018-08-19T13:26:11.909Z,44.50
2018-08-19T13:27:16.063Z,45.29
2018-08-19T13:28:20.252Z,45.17
2018-08-19T13:29:24.575Z,44.77
2018-08-19T13:30:29.309Z,44.19
2018-08-19T13:31:34.851Z,43.97
2018-08-19T13:32:39.190Z,43.83
2018-08-19T13:33:43.332Z,43.85
2018-08-19T13:34:47.512Z,43.90
2018-08-19T13:35:51.804Z,44.44
2018-08-19T13:36:56.475Z,44.04
2018-08-19T13:38:00.729Z,44.27
2018-08-19T13:39:07.427Z,44.32
2018-08-19T13:40:12.571Z,43.98
2018-08-19T13:41:16.771Z,43.40
2018-08-19T13:42:20.938Z,44.34
2018-08-19T13:43:25.100Z,43.86
2018-08-19T13:44:29.292Z,44.24
2018-08-19T13:45:33.450Z,44.08
2018-08-19T13:46:37.657Z,44.25
2018-08-19T13:47:43.282Z,44.30
2018-08-19T13:48:47.639Z,44.33
2018-08-19T13:49:51.816Z,43.94
2018-08-19T13:50:56.013Z,44.07
2018-08-19T13:52:01.536Z,43.83
2018-08-19T13:53:05.803Z,44.03
2018-08-19T13:54:10.011Z,43.89
2018-08-19T13:55:16.168Z,43.79
2018-08-19T13:56:20.391Z,43.66
2018-08-19T13:57:24.626Z,43.86
2018-08-19T13:58:28.829Z,43.36
2018-08-19T13:59:32.995Z,43.88
2018-08-19T14:00:37.167Z,43.46
2018-08-19T14:01:41.499Z,43.99
2018-08-19T14:02:46.251Z,44.02